SKVV/VVC METAR and TAF weather

Enter ICAO airport designator
Station Type Date Time Source
SKVV METAR 2020/01/27 01:00 UTC NOAA

SKVV 270100Z 00000KT 9999 SCT023 SCT090 27/22 A2991


Station Type Date Time Source
SKVV Decoded METAR 2020/01/27 01:00 UTC NOAA

Villavicencio / Vanguardia, Colombia (SKVV) 04-10N 073-37W 431M
Jan 26, 2020 - 08:00 PM EST / 2020.01.27 0100 UTC
Wind: Calm:0
Visibility: greater than 7 mile(s):0
Sky conditions: partly cloudy
Temperature: 80 F (27 C)
Dew Point: 71 F (22 C)
Relative Humidity: 74%
Pressure (altimeter): 29.91 in. Hg (1012 hPa)
ob: SKVV 270100Z 00000KT 9999 SCT023 SCT090 27/22 A2991
cycle: 1

Station Type Date Time Source
SKVV TAF UTC NOAA

Error!

Example: see airport list